sensor_id;sensor_type;location;lat;lon;timestamp;P1;durP1;ratioP1;P2;durP2;ratioP2
16179;SDS011;8196;49.428;10.906;2023-02-18T00:00:58;2.67;;;2.47;;
16179;SDS011;8196;49.428;10.906;2023-02-18T00:03:26;3.15;;;2.78;;
16179;SDS011;8196;49.428;10.906;2023-02-18T00:05:54;3.25;;;2.95;;
16179;SDS011;8196;49.428;10.906;2023-02-18T00:08:21;3.10;;;2.90;;
16179;SDS011;8196;49.428;10.906;2023-02-18T00:10:48;2.97;;;2.78;;
16179;SDS011;8196;49.428;10.906;2023-02-18T00:13:14;3.58;;;2.92;;
16179;SDS011;8196;49.428;10.906;2023-02-18T00:15:41;3.10;;;2.80;;
16179;SDS011;8196;49.428;10.906;2023-02-18T00:18:08;3.50;;;3.17;;
16179;SDS011;8196;49.428;10.906;2023-02-18T00:20:37;3.40;;;3.10;;
16179;SDS011;8196;49.428;10.906;2023-02-18T00:23:04;3.30;;;2.80;;
16179;SDS011;8196;49.428;10.906;2023-02-18T00:25:31;3.35;;;2.90;;
16179;SDS011;8196;49.428;10.906;2023-02-18T00:27:58;4.25;;;3.00;;
16179;SDS011;8196;49.428;10.906;2023-02-18T00:30:24;3.33;;;3.00;;
16179;SDS011;8196;49.428;10.906;2023-02-18T00:32:53;3.50;;;3.20;;
16179;SDS011;8196;49.428;10.906;2023-02-18T00:35:20;3.30;;;3.00;;
16179;SDS011;8196;49.428;10.906;2023-02-18T00:37:49;3.33;;;3.03;;
16179;SDS011;8196;49.428;10.906;2023-02-18T00:40:16;3.00;;;2.80;;
16179;SDS011;8196;49.428;10.906;2023-02-18T00:42:44;3.10;;;2.80;;
16179;SDS011;8196;49.428;10.906;2023-02-18T00:45:10;3.80;;;3.30;;
16179;SDS011;8196;49.428;10.906;2023-02-18T00:47:37;3.30;;;3.00;;
16179;SDS011;8196;49.428;10.906;2023-02-18T00:50:04;3.55;;;3.00;;
16179;SDS011;8196;49.428;10.906;2023-02-18T00:52:31;3.83;;;3.50;;
16179;SDS011;8196;49.428;10.906;2023-02-18T00:54:58;4.13;;;3.72;;
16179;SDS011;8196;49.428;10.906;2023-02-18T00:57:24;3.60;;;3.30;;
16179;SDS011;8196;49.428;10.906;2023-02-18T00:59:51;4.90;;;3.30;;
16179;SDS011;8196;49.428;10.906;2023-02-18T01:02:18;3.67;;;3.38;;
16179;SDS011;8196;49.428;10.906;2023-02-18T01:04:45;3.92;;;3.60;;
16179;SDS011;8196;49.428;10.906;2023-02-18T01:07:12;3.70;;;3.40;;
16179;SDS011;8196;49.428;10.906;2023-02-18T01:09:39;4.13;;;3.70;;
16179;SDS011;8196;49.428;10.906;2023-02-18T01:12:06;3.90;;;3.50;;
16179;SDS011;8196;49.428;10.906;2023-02-18T01:14:33;3.95;;;3.55;;
16179;SDS011;8196;49.428;10.906;2023-02-18T01:16:59;3.80;;;3.50;;
16179;SDS011;8196;49.428;10.906;2023-02-18T01:19:26;4.00;;;3.70;;
16179;SDS011;8196;49.428;10.906;2023-02-18T01:21:53;3.80;;;3.50;;
16179;SDS011;8196;49.428;10.906;2023-02-18T01:24:19;3.90;;;3.60;;
16179;SDS011;8196;49.428;10.906;2023-02-18T01:26:46;3.85;;;3.50;;
16179;SDS011;8196;49.428;10.906;2023-02-18T01:29:13;3.58;;;3.28;;
16179;SDS011;8196;49.428;10.906;2023-02-18T01:31:40;3.60;;;3.30;;
16179;SDS011;8196;49.428;10.906;2023-02-18T01:34:07;3.63;;;3.33;;
16179;SDS011;8196;49.428;10.906;2023-02-18T01:36:33;3.50;;;3.20;;
16179;SDS011;8196;49.428;10.906;2023-02-18T01:39:00;3.58;;;3.28;;
16179;SDS011;8196;49.428;10.906;2023-02-18T01:41:27;3.30;;;3.00;;
16179;SDS011;8196;49.428;10.906;2023-02-18T01:44:11;3.40;;;3.10;;
16179;SDS011;8196;49.428;10.906;2023-02-18T01:46:39;3.60;;;3.08;;
16179;SDS011;8196;49.428;10.906;2023-02-18T01:49:06;3.60;;;3.30;;
16179;SDS011;8196;49.428;10.906;2023-02-18T01:51:35;3.47;;;3.17;;
16179;SDS011;8196;49.428;10.906;2023-02-18T01:54:10;3.45;;;3.15;;
16179;SDS011;8196;49.428;10.906;2023-02-18T01:59:32;3.13;;;2.80;;
16179;SDS011;8196;49.428;10.906;2023-02-18T02:02:11;3.70;;;3.30;;
16179;SDS011;8196;49.428;10.906;2023-02-18T02:04:40;3.20;;;2.90;;
16179;SDS011;8196;49.428;10.906;2023-02-18T02:07:07;3.10;;;2.85;;
16179;SDS011;8196;49.428;10.906;2023-02-18T02:09:35;3.45;;;3.10;;
16179;SDS011;8196;49.428;10.906;2023-02-18T02:21:00;3.00;;;2.80;;
16179;SDS011;8196;49.428;10.906;2023-02-18T02:39:40;3.20;;;2.90;;
16179;SDS011;8196;49.428;10.906;2023-02-18T02:42:33;3.10;;;2.58;;
16179;SDS011;8196;49.428;10.906;2023-02-18T02:45:10;2.83;;;2.63;;
16179;SDS011;8196;49.428;10.906;2023-02-18T02:50:19;2.83;;;2.60;;
16179;SDS011;8196;49.428;10.906;2023-02-18T02:53:02;2.90;;;2.13;;
16179;SDS011;8196;49.428;10.906;2023-02-18T02:55:36;2.65;;;2.40;;
16179;SDS011;8196;49.428;10.906;2023-02-18T02:58:03;2.50;;;2.30;;
16179;SDS011;8196;49.428;10.906;2023-02-18T03:06:18;2.70;;;2.20;;
16179;SDS011;8196;49.428;10.906;2023-02-18T03:11:46;2.42;;;2.22;;
16179;SDS011;8196;49.428;10.906;2023-02-18T03:14:43;2.03;;;1.93;;
16179;SDS011;8196;49.428;10.906;2023-02-18T03:17:34;1.98;;;1.88;;
16179;SDS011;8196;49.428;10.906;2023-02-18T03:20:07;2.10;;;1.90;;
16179;SDS011;8196;49.428;10.906;2023-02-18T03:22:43;2.75;;;1.85;;
16179;SDS011;8196;49.428;10.906;2023-02-18T03:25:12;1.98;;;1.80;;
16179;SDS011;8196;49.428;10.906;2023-02-18T03:27:43;2.00;;;1.80;;
16179;SDS011;8196;49.428;10.906;2023-02-18T03:30:21;1.98;;;1.88;;
16179;SDS011;8196;49.428;10.906;2023-02-18T03:32:54;1.95;;;1.80;;
16179;SDS011;8196;49.428;10.906;2023-02-18T03:35:23;1.70;;;1.60;;
16179;SDS011;8196;49.428;10.906;2023-02-18T03:37:53;1.98;;;1.75;;
16179;SDS011;8196;49.428;10.906;2023-02-18T03:40:26;1.80;;;1.70;;
16179;SDS011;8196;49.428;10.906;2023-02-18T03:42:55;2.43;;;2.00;;
16179;SDS011;8196;49.428;10.906;2023-02-18T03:45:24;2.08;;;1.98;;
16179;SDS011;8196;49.428;10.906;2023-02-18T03:47:51;2.03;;;1.90;;
16179;SDS011;8196;49.428;10.906;2023-02-18T03:50:18;2.30;;;2.10;;
16179;SDS011;8196;49.428;10.906;2023-02-18T03:52:45;2.40;;;2.20;;
16179;SDS011;8196;49.428;10.906;2023-02-18T03:55:12;3.03;;;2.30;;
16179;SDS011;8196;49.428;10.906;2023-02-18T03:57:39;2.30;;;2.10;;
16179;SDS011;8196;49.428;10.906;2023-02-18T04:00:05;2.50;;;2.30;;
16179;SDS011;8196;49.428;10.906;2023-02-18T04:02:33;2.55;;;2.35;;
16179;SDS011;8196;49.428;10.906;2023-02-18T04:04:59;2.75;;;2.47;;
16179;SDS011;8196;49.428;10.906;2023-02-18T04:07:26;2.70;;;2.50;;
16179;SDS011;8196;49.428;10.906;2023-02-18T04:09:53;2.95;;;2.65;;
16179;SDS011;8196;49.428;10.906;2023-02-18T04:12:20;2.70;;;2.50;;
16179;SDS011;8196;49.428;10.906;2023-02-18T04:14:49;3.30;;;3.00;;
16179;SDS011;8196;49.428;10.906;2023-02-18T04:17:16;3.45;;;3.15;;
16179;SDS011;8196;49.428;10.906;2023-02-18T04:19:42;3.63;;;3.25;;
16179;SDS011;8196;49.428;10.906;2023-02-18T04:22:09;3.67;;;3.20;;
16179;SDS011;8196;49.428;10.906;2023-02-18T04:24:36;3.53;;;3.22;;
16179;SDS011;8196;49.428;10.906;2023-02-18T04:27:02;3.47;;;3.17;;
16179;SDS011;8196;49.428;10.906;2023-02-18T04:29:29;3.60;;;3.30;;
16179;SDS011;8196;49.428;10.906;2023-02-18T04:31:56;3.58;;;3.28;;
16179;SDS011;8196;49.428;10.906;2023-02-18T04:34:23;3.78;;;3.33;;
16179;SDS011;8196;49.428;10.906;2023-02-18T04:36:50;3.65;;;3.35;;
16179;SDS011;8196;49.428;10.906;2023-02-18T04:39:17;3.20;;;2.90;;
16179;SDS011;8196;49.428;10.906;2023-02-18T04:41:43;3.47;;;3.17;;
16179;SDS011;8196;49.428;10.906;2023-02-18T04:44:10;3.47;;;3.17;;
16179;SDS011;8196;49.428;10.906;2023-02-18T04:46:37;3.10;;;2.90;;
16179;SDS011;8196;49.428;10.906;2023-02-18T04:49:04;3.40;;;3.10;;
16179;SDS011;8196;49.428;10.906;2023-02-18T04:51:30;3.13;;;2.83;;
16179;SDS011;8196;49.428;10.906;2023-02-18T04:53:57;3.08;;;2.78;;
16179;SDS011;8196;49.428;10.906;2023-02-18T04:56:24;3.40;;;2.73;;
16179;SDS011;8196;49.428;10.906;2023-02-18T04:58:51;2.90;;;2.70;;
16179;SDS011;8196;49.428;10.906;2023-02-18T05:01:17;3.00;;;2.80;;
16179;SDS011;8196;49.428;10.906;2023-02-18T05:03:44;3.05;;;2.75;;
16179;SDS011;8196;49.428;10.906;2023-02-18T05:06:12;2.85;;;2.65;;
16179;SDS011;8196;49.428;10.906;2023-02-18T05:08:38;2.83;;;2.60;;
16179;SDS011;8196;49.428;10.906;2023-02-18T05:11:06;2.80;;;2.55;;
16179;SDS011;8196;49.428;10.906;2023-02-18T05:13:33;2.65;;;2.45;;
16179;SDS011;8196;49.428;10.906;2023-02-18T05:16:00;2.70;;;2.50;;
16179;SDS011;8196;49.428;10.906;2023-02-18T05:18:27;2.97;;;2.60;;
16179;SDS011;8196;49.428;10.906;2023-02-18T05:20:54;3.05;;;2.75;;
16179;SDS011;8196;49.428;10.906;2023-02-18T05:23:21;3.13;;;2.90;;
16179;SDS011;8196;49.428;10.906;2023-02-18T05:25:50;3.47;;;3.10;;
16179;SDS011;8196;49.428;10.906;2023-02-18T05:28:17;3.17;;;2.93;;
16179;SDS011;8196;49.428;10.906;2023-02-18T05:30:44;3.50;;;3.10;;
16179;SDS011;8196;49.428;10.906;2023-02-18T05:33:11;3.22;;;2.92;;
16179;SDS011;8196;49.428;10.906;2023-02-18T05:35:38;3.45;;;3.15;;
16179;SDS011;8196;49.428;10.906;2023-02-18T05:38:04;3.80;;;3.50;;
16179;SDS011;8196;49.428;10.906;2023-02-18T05:40:31;4.10;;;3.30;;
16179;SDS011;8196;49.428;10.906;2023-02-18T05:42:58;3.70;;;3.40;;
16179;SDS011;8196;49.428;10.906;2023-02-18T05:45:24;4.03;;;3.60;;
16179;SDS011;8196;49.428;10.906;2023-02-18T05:47:51;3.65;;;3.35;;
16179;SDS011;8196;49.428;10.906;2023-02-18T05:50:18;4.10;;;3.70;;
16179;SDS011;8196;49.428;10.906;2023-02-18T05:52:45;4.10;;;3.70;;
16179;SDS011;8196;49.428;10.906;2023-02-18T05:55:12;3.83;;;3.53;;
16179;SDS011;8196;49.428;10.906;2023-02-18T05:57:39;4.32;;;3.95;;
16179;SDS011;8196;49.428;10.906;2023-02-18T06:00:06;4.60;;;3.60;;
16179;SDS011;8196;49.428;10.906;2023-02-18T06:02:35;3.72;;;3.42;;
16179;SDS011;8196;49.428;10.906;2023-02-18T06:05:03;4.17;;;3.83;;
16179;SDS011;8196;49.428;10.906;2023-02-18T06:07:30;4.10;;;3.70;;
16179;SDS011;8196;49.428;10.906;2023-02-18T06:09:57;4.40;;;3.90;;
16179;SDS011;8196;49.428;10.906;2023-02-18T06:12:23;4.63;;;4.22;;
16179;SDS011;8196;49.428;10.906;2023-02-18T06:14:50;4.50;;;4.10;;
16179;SDS011;8196;49.428;10.906;2023-02-18T06:17:17;4.65;;;4.25;;
16179;SDS011;8196;49.428;10.906;2023-02-18T06:19:44;4.50;;;4.10;;
16179;SDS011;8196;49.428;10.906;2023-02-18T06:22:11;4.47;;;4.00;;
16179;SDS011;8196;49.428;10.906;2023-02-18T06:24:38;4.30;;;3.90;;
16179;SDS011;8196;49.428;10.906;2023-02-18T06:27:05;4.13;;;3.75;;
16179;SDS011;8196;49.428;10.906;2023-02-18T06:29:32;4.40;;;4.00;;
16179;SDS011;8196;49.428;10.906;2023-02-18T06:32:01;4.40;;;4.00;;
16179;SDS011;8196;49.428;10.906;2023-02-18T06:34:27;5.47;;;4.13;;
16179;SDS011;8196;49.428;10.906;2023-02-18T06:36:54;4.97;;;4.47;;
16179;SDS011;8196;49.428;10.906;2023-02-18T06:39:21;4.75;;;4.35;;
16179;SDS011;8196;49.428;10.906;2023-02-18T06:41:48;5.10;;;4.70;;
16179;SDS011;8196;49.428;10.906;2023-02-18T06:44:14;5.53;;;5.03;;
16179;SDS011;8196;49.428;10.906;2023-02-18T06:46:42;5.90;;;5.30;;
16179;SDS011;8196;49.428;10.906;2023-02-18T06:49:10;5.93;;;5.30;;
16179;SDS011;8196;49.428;10.906;2023-02-18T06:51:36;6.68;;;5.68;;
16179;SDS011;8196;49.428;10.906;2023-02-18T06:54:03;6.68;;;5.97;;
16179;SDS011;8196;49.428;10.906;2023-02-18T06:56:31;7.13;;;6.43;;
16179;SDS011;8196;49.428;10.906;2023-02-18T06:58:58;6.80;;;6.20;;
16179;SDS011;8196;49.428;10.906;2023-02-18T07:01:24;7.00;;;6.30;;
16179;SDS011;8196;49.428;10.906;2023-02-18T07:03:51;7.20;;;6.50;;
16179;SDS011;8196;49.428;10.906;2023-02-18T07:06:18;7.72;;;6.93;;
16179;SDS011;8196;49.428;10.906;2023-02-18T07:08:45;7.25;;;6.35;;
16179;SDS011;8196;49.428;10.906;2023-02-18T07:11:11;8.05;;;7.28;;
16179;SDS011;8196;49.428;10.906;2023-02-18T07:13:38;7.80;;;7.10;;
16179;SDS011;8196;49.428;10.906;2023-02-18T07:16:05;8.15;;;7.28;;
16179;SDS011;8196;49.428;10.906;2023-02-18T07:18:32;9.15;;;7.97;;
16179;SDS011;8196;49.428;10.906;2023-02-18T07:23:26;7.95;;;7.15;;
16179;SDS011;8196;49.428;10.906;2023-02-18T07:26:01;8.90;;;7.38;;
16179;SDS011;8196;49.428;10.906;2023-02-18T07:28:28;8.60;;;7.40;;
16179;SDS011;8196;49.428;10.906;2023-02-18T07:30:55;8.02;;;7.22;;
16179;SDS011;8196;49.428;10.906;2023-02-18T07:33:22;8.90;;;7.70;;
16179;SDS011;8196;49.428;10.906;2023-02-18T07:35:52;7.90;;;7.10;;
16179;SDS011;8196;49.428;10.906;2023-02-18T07:38:20;7.45;;;6.75;;
16179;SDS011;8196;49.428;10.906;2023-02-18T07:40:48;7.88;;;6.80;;
16179;SDS011;8196;49.428;10.906;2023-02-18T07:43:15;7.78;;;6.95;;
16179;SDS011;8196;49.428;10.906;2023-02-18T07:45:42;7.60;;;6.80;;
16179;SDS011;8196;49.428;10.906;2023-02-18T07:48:09;7.32;;;6.50;;
16179;SDS011;8196;49.428;10.906;2023-02-18T07:50:38;6.90;;;6.20;;
16179;SDS011;8196;49.428;10.906;2023-02-18T07:53:06;6.72;;;6.05;;
16179;SDS011;8196;49.428;10.906;2023-02-18T07:55:33;6.65;;;5.97;;
16179;SDS011;8196;49.428;10.906;2023-02-18T07:58:19;6.22;;;5.63;;
16179;SDS011;8196;49.428;10.906;2023-02-18T08:00:48;6.63;;;6.00;;
16179;SDS011;8196;49.428;10.906;2023-02-18T08:03:16;6.15;;;5.55;;
16179;SDS011;8196;49.428;10.906;2023-02-18T08:05:44;5.50;;;5.00;;
16179;SDS011;8196;49.428;10.906;2023-02-18T08:08:14;5.65;;;5.15;;
16179;SDS011;8196;49.428;10.906;2023-02-18T08:10:43;5.90;;;5.30;;
16179;SDS011;8196;49.428;10.906;2023-02-18T08:13:09;5.07;;;4.60;;
16179;SDS011;8196;49.428;10.906;2023-02-18T08:15:36;5.53;;;4.88;;
16179;SDS011;8196;49.428;10.906;2023-02-18T08:18:03;5.47;;;4.82;;
16179;SDS011;8196;49.428;10.906;2023-02-18T08:20:31;5.37;;;4.87;;
16179;SDS011;8196;49.428;10.906;2023-02-18T08:23:01;5.55;;;4.93;;
16179;SDS011;8196;49.428;10.906;2023-02-18T08:25:27;5.30;;;4.73;;
16179;SDS011;8196;49.428;10.906;2023-02-18T08:27:55;5.07;;;4.53;;
16179;SDS011;8196;49.428;10.906;2023-02-18T08:30:22;5.10;;;4.60;;
16179;SDS011;8196;49.428;10.906;2023-02-18T08:32:48;5.23;;;4.73;;
16179;SDS011;8196;49.428;10.906;2023-02-18T08:35:15;5.07;;;4.57;;
16179;SDS011;8196;49.428;10.906;2023-02-18T08:37:42;4.93;;;4.38;;
16179;SDS011;8196;49.428;10.906;2023-02-18T08:40:19;5.40;;;4.30;;
16179;SDS011;8196;49.428;10.906;2023-02-18T08:42:46;5.10;;;4.55;;
16179;SDS011;8196;49.428;10.906;2023-02-18T08:45:13;4.68;;;4.25;;
16179;SDS011;8196;49.428;10.906;2023-02-18T08:47:40;4.83;;;4.20;;
16179;SDS011;8196;49.428;10.906;2023-02-18T08:50:26;5.18;;;4.15;;
16179;SDS011;8196;49.428;10.906;2023-02-18T08:52:53;5.00;;;3.95;;
16179;SDS011;8196;49.428;10.906;2023-02-18T08:55:21;4.90;;;4.25;;
16179;SDS011;8196;49.428;10.906;2023-02-18T08:57:49;4.25;;;3.85;;
16179;SDS011;8196;49.428;10.906;2023-02-18T09:00:16;4.00;;;3.67;;
16179;SDS011;8196;49.428;10.906;2023-02-18T09:02:43;4.28;;;3.88;;
16179;SDS011;8196;49.428;10.906;2023-02-18T09:05:10;3.90;;;3.50;;
16179;SDS011;8196;49.428;10.906;2023-02-18T09:07:37;3.95;;;3.35;;
16179;SDS011;8196;49.428;10.906;2023-02-18T09:10:04;4.15;;;3.40;;
16179;SDS011;8196;49.428;10.906;2023-02-18T09:12:32;3.83;;;3.22;;
16179;SDS011;8196;49.428;10.906;2023-02-18T09:17:26;3.47;;;3.17;;
16179;SDS011;8196;49.428;10.906;2023-02-18T09:19:53;3.40;;;3.10;;
16179;SDS011;8196;49.428;10.906;2023-02-18T09:22:20;3.75;;;2.95;;
16179;SDS011;8196;49.428;10.906;2023-02-18T09:24:47;3.28;;;2.90;;
16179;SDS011;8196;49.428;10.906;2023-02-18T09:27:13;3.00;;;2.70;;
16179;SDS011;8196;49.428;10.906;2023-02-18T09:29:40;4.40;;;3.10;;
16179;SDS011;8196;49.428;10.906;2023-02-18T09:32:08;3.65;;;3.20;;
16179;SDS011;8196;49.428;10.906;2023-02-18T09:34:36;3.33;;;2.92;;
16179;SDS011;8196;49.428;10.906;2023-02-18T09:37:05;3.33;;;3.00;;
16179;SDS011;8196;49.428;10.906;2023-02-18T09:39:32;2.97;;;2.70;;
16179;SDS011;8196;49.428;10.906;2023-02-18T09:42:00;2.90;;;2.60;;
16179;SDS011;8196;49.428;10.906;2023-02-18T09:44:31;2.70;;;2.50;;
16179;SDS011;8196;49.428;10.906;2023-02-18T09:47:10;2.75;;;2.55;;
16179;SDS011;8196;49.428;10.906;2023-02-18T09:49:42;2.97;;;2.67;;
16179;SDS011;8196;49.428;10.906;2023-02-18T09:52:29;2.90;;;2.70;;
16179;SDS011;8196;49.428;10.906;2023-02-18T09:54:58;2.90;;;2.53;;
16179;SDS011;8196;49.428;10.906;2023-02-18T09:57:28;2.50;;;2.30;;
16179;SDS011;8196;49.428;10.906;2023-02-18T10:00:05;2.78;;;2.40;;
16179;SDS011;8196;49.428;10.906;2023-02-18T10:02:39;2.35;;;2.15;;
16179;SDS011;8196;49.428;10.906;2023-02-18T10:05:11;2.50;;;2.30;;
16179;SDS011;8196;49.428;10.906;2023-02-18T10:07:40;2.67;;;2.20;;
16179;SDS011;8196;49.428;10.906;2023-02-18T10:10:15;2.55;;;2.30;;
16179;SDS011;8196;49.428;10.906;2023-02-18T10:13:02;2.40;;;2.20;;
16179;SDS011;8196;49.428;10.906;2023-02-18T10:15:29;2.55;;;2.35;;
16179;SDS011;8196;49.428;10.906;2023-02-18T10:17:57;2.75;;;2.42;;
16179;SDS011;8196;49.428;10.906;2023-02-18T10:20:26;3.15;;;2.63;;
16179;SDS011;8196;49.428;10.906;2023-02-18T10:22:56;2.70;;;2.45;;
16179;SDS011;8196;49.428;10.906;2023-02-18T10:25:25;2.70;;;2.50;;
16179;SDS011;8196;49.428;10.906;2023-02-18T10:27:53;2.83;;;2.40;;
16179;SDS011;8196;49.428;10.906;2023-02-18T10:32:50;2.67;;;2.47;;
16179;SDS011;8196;49.428;10.906;2023-02-18T10:38:15;3.00;;;2.70;;
16179;SDS011;8196;49.428;10.906;2023-02-18T10:52:22;4.38;;;3.30;;
16179;SDS011;8196;49.428;10.906;2023-02-18T10:55:09;3.27;;;2.97;;
16179;SDS011;8196;49.428;10.906;2023-02-18T10:57:48;3.65;;;2.70;;
16179;SDS011;8196;49.428;10.906;2023-02-18T11:00:21;3.08;;;2.78;;
16179;SDS011;8196;49.428;10.906;2023-02-18T11:05:42;3.13;;;2.83;;
16179;SDS011;8196;49.428;10.906;2023-02-18T11:08:13;3.38;;;3.08;;
16179;SDS011;8196;49.428;10.906;2023-02-18T11:10:45;3.97;;;2.97;;
16179;SDS011;8196;49.428;10.906;2023-02-18T11:13:14;4.22;;;3.15;;
16179;SDS011;8196;49.428;10.906;2023-02-18T11:16:02;4.28;;;3.05;;
16179;SDS011;8196;49.428;10.906;2023-02-18T11:18:39;3.30;;;2.90;;
16179;SDS011;8196;49.428;10.906;2023-02-18T11:21:21;3.90;;;3.30;;
16179;SDS011;8196;49.428;10.906;2023-02-18T11:23:54;3.13;;;2.83;;
16179;SDS011;8196;49.428;10.906;2023-02-18T11:26:26;3.22;;;2.92;;
16179;SDS011;8196;49.428;10.906;2023-02-18T11:29:15;3.63;;;2.80;;
16179;SDS011;8196;49.428;10.906;2023-02-18T11:31:47;3.10;;;2.80;;
16179;SDS011;8196;49.428;10.906;2023-02-18T11:34:19;3.10;;;2.80;;
16179;SDS011;8196;49.428;10.906;2023-02-18T11:36:48;2.97;;;2.63;;
16179;SDS011;8196;49.428;10.906;2023-02-18T11:39:19;2.95;;;2.65;;
16179;SDS011;8196;49.428;10.906;2023-02-18T11:41:57;3.67;;;2.70;;
16179;SDS011;8196;49.428;10.906;2023-02-18T11:44:28;3.40;;;2.63;;
16179;SDS011;8196;49.428;10.906;2023-02-18T11:47:00;2.83;;;2.60;;
16179;SDS011;8196;49.428;10.906;2023-02-18T11:49:29;2.60;;;2.40;;
16179;SDS011;8196;49.428;10.906;2023-02-18T11:52:03;3.05;;;2.50;;
16179;SDS011;8196;49.428;10.906;2023-02-18T11:54:31;2.95;;;2.30;;
16179;SDS011;8196;49.428;10.906;2023-02-18T11:56:59;3.15;;;2.35;;
16179;SDS011;8196;49.428;10.906;2023-02-18T11:59:31;3.25;;;2.70;;
16179;SDS011;8196;49.428;10.906;2023-02-18T12:05:08;2.95;;;2.65;;
16179;SDS011;8196;49.428;10.906;2023-02-18T12:10:14;2.83;;;2.47;;
16179;SDS011;8196;49.428;10.906;2023-02-18T12:12:53;3.50;;;2.80;;
16179;SDS011;8196;49.428;10.906;2023-02-18T12:15:23;2.95;;;2.50;;
16179;SDS011;8196;49.428;10.906;2023-02-18T12:23:20;2.83;;;2.40;;
16179;SDS011;8196;49.428;10.906;2023-02-18T12:39:43;2.63;;;2.28;;
16179;SDS011;8196;49.428;10.906;2023-02-18T12:45:12;3.17;;;2.10;;
16179;SDS011;8196;49.428;10.906;2023-02-18T12:47:57;2.80;;;2.22;;
16179;SDS011;8196;49.428;10.906;2023-02-18T12:53:29;2.60;;;2.10;;
16179;SDS011;8196;49.428;10.906;2023-02-18T12:56:15;3.10;;;2.17;;
16179;SDS011;8196;49.428;10.906;2023-02-18T12:58:55;1.98;;;1.75;;
16179;SDS011;8196;49.428;10.906;2023-02-18T13:01:50;2.40;;;2.10;;
16179;SDS011;8196;49.428;10.906;2023-02-18T13:04:24;2.30;;;2.10;;
16179;SDS011;8196;49.428;10.906;2023-02-18T13:09:45;2.25;;;2.03;;
16179;SDS011;8196;49.428;10.906;2023-02-18T13:17:57;2.85;;;2.33;;
16179;SDS011;8196;49.428;10.906;2023-02-18T13:20:32;4.32;;;2.30;;
16179;SDS011;8196;49.428;10.906;2023-02-18T13:23:03;2.50;;;2.30;;
16179;SDS011;8196;49.428;10.906;2023-02-18T13:25:33;2.70;;;2.20;;
16179;SDS011;8196;49.428;10.906;2023-02-18T13:28:11;2.17;;;1.90;;
16179;SDS011;8196;49.428;10.906;2023-02-18T13:31:04;3.72;;;2.30;;
16179;SDS011;8196;49.428;10.906;2023-02-18T13:36:31;2.50;;;2.30;;
16179;SDS011;8196;49.428;10.906;2023-02-18T13:39:08;2.25;;;2.00;;
16179;SDS011;8196;49.428;10.906;2023-02-18T13:41:44;3.20;;;2.40;;
16179;SDS011;8196;49.428;10.906;2023-02-18T13:46:52;2.45;;;2.00;;
16179;SDS011;8196;49.428;10.906;2023-02-18T13:49:22;2.67;;;2.10;;
16179;SDS011;8196;49.428;10.906;2023-02-18T13:51:52;2.83;;;2.40;;
16179;SDS011;8196;49.428;10.906;2023-02-18T13:56:59;2.65;;;2.40;;
16179;SDS011;8196;49.428;10.906;2023-02-18T13:59:33;2.80;;;2.20;;
16179;SDS011;8196;49.428;10.906;2023-02-18T14:02:07;2.47;;;2.28;;
16179;SDS011;8196;49.428;10.906;2023-02-18T14:04:51;3.38;;;2.17;;
16179;SDS011;8196;49.428;10.906;2023-02-18T14:10:03;2.70;;;2.40;;
16179;SDS011;8196;49.428;10.906;2023-02-18T14:15:45;3.20;;;2.10;;
16179;SDS011;8196;49.428;10.906;2023-02-18T14:25:56;2.70;;;2.45;;
16179;SDS011;8196;49.428;10.906;2023-02-18T14:50:43;2.35;;;2.10;;
16179;SDS011;8196;49.428;10.906;2023-02-18T14:53:17;2.42;;;1.98;;
16179;SDS011;8196;49.428;10.906;2023-02-18T14:55:48;3.30;;;2.70;;
16179;SDS011;8196;49.428;10.906;2023-02-18T15:01:17;3.55;;;2.10;;
16179;SDS011;8196;49.428;10.906;2023-02-18T15:03:48;2.60;;;2.40;;
16179;SDS011;8196;49.428;10.906;2023-02-18T15:09:04;3.40;;;2.30;;
16179;SDS011;8196;49.428;10.906;2023-02-18T15:11:45;2.80;;;2.45;;
16179;SDS011;8196;49.428;10.906;2023-02-18T15:14:16;2.40;;;2.20;;
16179;SDS011;8196;49.428;10.906;2023-02-18T15:16:45;2.85;;;2.45;;
16179;SDS011;8196;49.428;10.906;2023-02-18T15:19:14;2.85;;;2.55;;
16179;SDS011;8196;49.428;10.906;2023-02-18T15:21:46;2.90;;;2.63;;
16179;SDS011;8196;49.428;10.906;2023-02-18T15:24:30;2.88;;;2.63;;
16179;SDS011;8196;49.428;10.906;2023-02-18T15:27:02;3.38;;;2.70;;
16179;SDS011;8196;49.428;10.906;2023-02-18T15:29:36;3.13;;;2.50;;
16179;SDS011;8196;49.428;10.906;2023-02-18T15:32:20;3.00;;;2.63;;
16179;SDS011;8196;49.428;10.906;2023-02-18T15:34:55;3.63;;;2.55;;
16179;SDS011;8196;49.428;10.906;2023-02-18T15:37:27;3.28;;;2.90;;
16179;SDS011;8196;49.428;10.906;2023-02-18T15:39:55;2.83;;;2.63;;
16179;SDS011;8196;49.428;10.906;2023-02-18T15:44:51;3.80;;;3.17;;
16179;SDS011;8196;49.428;10.906;2023-02-18T15:47:23;3.30;;;3.00;;
16179;SDS011;8196;49.428;10.906;2023-02-18T15:49:51;3.85;;;3.20;;
16179;SDS011;8196;49.428;10.906;2023-02-18T15:52:22;2.97;;;2.67;;
16179;SDS011;8196;49.428;10.906;2023-02-18T15:54:51;2.80;;;2.60;;
16179;SDS011;8196;49.428;10.906;2023-02-18T15:57:19;4.25;;;2.97;;
16179;SDS011;8196;49.428;10.906;2023-02-18T15:59:53;3.30;;;2.90;;
16179;SDS011;8196;49.428;10.906;2023-02-18T16:02:25;3.00;;;2.70;;
16179;SDS011;8196;49.428;10.906;2023-02-18T16:04:56;4.57;;;3.17;;
16179;SDS011;8196;49.428;10.906;2023-02-18T16:10:05;3.67;;;2.97;;
16179;SDS011;8196;49.428;10.906;2023-02-18T16:12:33;3.67;;;3.20;;
16179;SDS011;8196;49.428;10.906;2023-02-18T16:15:02;3.50;;;3.20;;
16179;SDS011;8196;49.428;10.906;2023-02-18T16:17:30;3.95;;;2.97;;
16179;SDS011;8196;49.428;10.906;2023-02-18T16:19:58;3.13;;;2.83;;
16179;SDS011;8196;49.428;10.906;2023-02-18T16:24:59;3.72;;;3.22;;
16179;SDS011;8196;49.428;10.906;2023-02-18T16:27:46;4.43;;;3.28;;
16179;SDS011;8196;49.428;10.906;2023-02-18T16:30:17;4.30;;;3.80;;
16179;SDS011;8196;49.428;10.906;2023-02-18T16:32:46;4.28;;;3.70;;
16179;SDS011;8196;49.428;10.906;2023-02-18T16:35:13;4.00;;;3.60;;
16179;SDS011;8196;49.428;10.906;2023-02-18T16:37:40;4.05;;;3.65;;
16179;SDS011;8196;49.428;10.906;2023-02-18T16:42:58;6.30;;;4.00;;
16179;SDS011;8196;49.428;10.906;2023-02-18T16:45:31;5.18;;;4.25;;
16179;SDS011;8196;49.428;10.906;2023-02-18T16:48:01;5.00;;;4.50;;
16179;SDS011;8196;49.428;10.906;2023-02-18T16:50:29;4.80;;;4.03;;
16179;SDS011;8196;49.428;10.906;2023-02-18T16:52:58;5.38;;;4.82;;
16179;SDS011;8196;49.428;10.906;2023-02-18T16:55:26;4.90;;;4.40;;
16179;SDS011;8196;49.428;10.906;2023-02-18T16:57:54;5.70;;;4.18;;
16179;SDS011;8196;49.428;10.906;2023-02-18T17:00:22;5.38;;;4.40;;
16179;SDS011;8196;49.428;10.906;2023-02-18T17:02:50;4.97;;;4.47;;
16179;SDS011;8196;49.428;10.906;2023-02-18T17:05:20;4.32;;;3.75;;
16179;SDS011;8196;49.428;10.906;2023-02-18T17:07:52;4.82;;;4.03;;
16179;SDS011;8196;49.428;10.906;2023-02-18T17:10:20;4.30;;;3.70;;
16179;SDS011;8196;49.428;10.906;2023-02-18T17:12:46;5.78;;;3.92;;
16179;SDS011;8196;49.428;10.906;2023-02-18T17:17:48;4.70;;;3.90;;
16179;SDS011;8196;49.428;10.906;2023-02-18T17:20:15;4.50;;;4.05;;
16179;SDS011;8196;49.428;10.906;2023-02-18T17:22:42;10.13;;;8.20;;
16179;SDS011;8196;49.428;10.906;2023-02-18T17:25:09;5.18;;;4.55;;
16179;SDS011;8196;49.428;10.906;2023-02-18T17:27:39;4.10;;;3.70;;
16179;SDS011;8196;49.428;10.906;2023-02-18T17:30:06;5.00;;;4.00;;
16179;SDS011;8196;49.428;10.906;2023-02-18T17:32:33;16.08;;;10.35;;
16179;SDS011;8196;49.428;10.906;2023-02-18T17:35:00;5.78;;;4.05;;
16179;SDS011;8196;49.428;10.906;2023-02-18T17:37:26;5.10;;;4.30;;
16179;SDS011;8196;49.428;10.906;2023-02-18T17:39:53;6.57;;;5.00;;
16179;SDS011;8196;49.428;10.906;2023-02-18T17:42:20;7.45;;;5.82;;
16179;SDS011;8196;49.428;10.906;2023-02-18T17:44:47;7.47;;;5.75;;
16179;SDS011;8196;49.428;10.906;2023-02-18T17:47:14;6.68;;;5.82;;
16179;SDS011;8196;49.428;10.906;2023-02-18T17:49:41;5.40;;;4.38;;